createdAt,value
2018-05-16T00:01:54.971Z,14.30
2018-05-16T00:04:23.263Z,15.60
2018-05-16T00:06:51.554Z,15.70
2018-05-16T00:09:19.887Z,16.60
2018-05-16T00:11:48.180Z,16.10
2018-05-16T00:14:16.476Z,15.27
2018-05-16T00:16:44.741Z,16.97
2018-05-16T00:19:13.029Z,15.07
2018-05-16T00:21:41.315Z,14.27
2018-05-16T00:24:09.591Z,14.60
2018-05-16T00:26:37.885Z,15.23
2018-05-16T00:29:06.167Z,17.13
2018-05-16T00:31:34.465Z,15.77
2018-05-16T00:34:02.771Z,16.73
2018-05-16T00:36:31.041Z,17.63
2018-05-16T00:41:49.629Z,17.20
2018-05-16T00:44:17.890Z,17.23
2018-05-16T00:46:46.176Z,16.00
2018-05-16T00:49:14.449Z,17.33
2018-05-16T00:51:42.725Z,17.70
2018-05-16T00:54:11.021Z,17.37
2018-05-16T00:56:39.323Z,18.30
2018-05-16T00:59:07.615Z,19.13
2018-05-16T01:01:35.880Z,20.70
2018-05-16T01:04:04.169Z,20.47
2018-05-16T01:06:32.446Z,19.90
2018-05-16T01:09:00.714Z,18.33
2018-05-16T01:11:29.004Z,19.50
2018-05-16T01:13:57.528Z,20.80
2018-05-16T01:16:25.810Z,19.23
2018-05-16T01:18:54.089Z,17.07
2018-05-16T01:21:22.399Z,18.53
2018-05-16T01:23:50.662Z,19.73
2018-05-16T01:26:18.938Z,19.10
2018-05-16T01:28:47.235Z,20.00
2018-05-16T01:31:15.526Z,20.47
2018-05-16T01:33:43.825Z,20.90
2018-05-16T01:36:12.870Z,18.97
2018-05-16T01:38:41.185Z,19.50
2018-05-16T01:41:10.064Z,18.80
2018-05-16T01:43:38.412Z,20.80
2018-05-16T01:46:06.665Z,19.63
2018-05-16T01:48:34.936Z,20.27
2018-05-16T01:51:04.145Z,20.07
2018-05-16T01:53:32.413Z,21.50
2018-05-16T01:56:01.490Z,22.33
2018-05-16T01:58:30.549Z,19.20
2018-05-16T02:00:58.832Z,20.40
2018-05-16T02:03:27.117Z,20.33
2018-05-16T02:05:55.387Z,22.40
2018-05-16T02:08:23.696Z,21.00
2018-05-16T02:10:53.466Z,20.20
2018-05-16T02:13:21.734Z,19.43
2018-05-16T02:15:50.038Z,20.60
2018-05-16T02:18:18.326Z,21.70
2018-05-16T02:20:46.629Z,21.00
2018-05-16T02:23:14.909Z,20.57
2018-05-16T02:25:43.958Z,20.70
2018-05-16T02:28:12.249Z,19.70
2018-05-16T02:30:40.529Z,19.83
2018-05-16T02:33:08.871Z,20.07
2018-05-16T02:35:37.140Z,21.33
2018-05-16T02:38:05.437Z,23.07
2018-05-16T02:40:33.723Z,20.10
2018-05-16T02:43:01.980Z,19.27
2018-05-16T02:45:30.292Z,19.97
2018-05-16T02:47:58.555Z,24.00
2018-05-16T02:50:27.617Z,19.73
2018-05-16T02:52:56.636Z,21.23
2018-05-16T02:55:24.940Z,19.93
2018-05-16T02:57:53.202Z,21.13
2018-05-16T03:00:21.461Z,19.23
2018-05-16T03:02:49.758Z,19.23
2018-05-16T03:05:18.036Z,20.63
2018-05-16T03:07:46.334Z,20.20
2018-05-16T03:10:14.609Z,18.80
2018-05-16T03:12:42.918Z,19.13
2018-05-16T03:15:12.032Z,21.13
2018-05-16T03:17:41.065Z,19.70
2018-05-16T03:20:09.395Z,22.13
2018-05-16T03:22:37.664Z,20.80
2018-05-16T03:25:05.972Z,20.87
2018-05-16T03:27:34.233Z,22.97
2018-05-16T03:30:02.551Z,21.90
2018-05-16T03:32:31.590Z,20.57
2018-05-16T03:34:59.850Z,21.63
2018-05-16T03:37:28.138Z,18.87
2018-05-16T03:39:56.417Z,22.33
2018-05-16T03:42:26.199Z,22.80
2018-05-16T03:44:54.465Z,20.87
2018-05-16T03:47:22.776Z,20.80
2018-05-16T03:49:51.047Z,22.30
2018-05-16T03:52:19.311Z,19.93
2018-05-16T03:54:47.676Z,20.07
2018-05-16T04:10:49.295Z,18.00
2018-05-16T04:13:17.595Z,20.27
2018-05-16T04:15:45.918Z,21.40
2018-05-16T04:18:14.186Z,21.80
2018-05-16T04:20:42.503Z,23.57
2018-05-16T04:23:11.585Z,20.20
2018-05-16T04:25:39.848Z,20.50
2018-05-16T04:28:08.759Z,21.30
2018-05-16T04:30:37.039Z,23.37
2018-05-16T04:33:05.340Z,20.00
2018-05-16T04:35:34.473Z,21.27
2018-05-16T04:38:02.667Z,19.97
2018-05-16T04:40:30.958Z,23.17
2018-05-16T04:42:59.235Z,20.70
2018-05-16T04:45:27.548Z,21.73
2018-05-16T04:47:56.609Z,20.17
2018-05-16T04:50:25.808Z,20.27
2018-05-16T04:52:54.144Z,15.90
2018-05-16T04:55:22.369Z,15.63
2018-05-16T04:57:50.642Z,15.67
2018-05-16T05:00:19.447Z,15.90
2018-05-16T05:02:48.490Z,17.83
2018-05-16T05:05:16.816Z,16.13
2018-05-16T05:07:45.080Z,16.20
2018-05-16T05:10:16.610Z,16.97
2018-05-16T05:12:44.906Z,17.53
2018-05-16T05:15:13.173Z,21.00
2018-05-16T05:17:41.481Z,14.57
2018-05-16T05:20:09.751Z,14.00
2018-05-16T05:22:38.052Z,17.03
2018-05-16T05:25:07.174Z,16.10
2018-05-16T05:27:35.451Z,16.23
2018-05-16T05:30:03.793Z,17.53
2018-05-16T05:32:32.066Z,16.17
2018-05-16T05:35:00.352Z,16.90
2018-05-16T05:37:29.421Z,16.47
2018-05-16T05:39:57.733Z,16.40
2018-05-16T05:42:26.786Z,17.60
2018-05-16T05:44:55.075Z,16.70
2018-05-16T05:47:23.375Z,15.87
2018-05-16T05:49:51.733Z,19.37
2018-05-16T05:52:20.029Z,17.00
2018-05-16T05:54:48.314Z,16.50
2018-05-16T05:57:16.632Z,15.23
2018-05-16T05:59:44.905Z,14.60
2018-05-16T06:02:13.277Z,16.07
2018-05-16T06:04:42.298Z,17.50
2018-05-16T06:07:10.614Z,19.03
2018-05-16T06:09:38.895Z,19.47
2018-05-16T06:12:07.194Z,17.83
2018-05-16T06:14:35.583Z,18.90
2018-05-16T06:17:04.611Z,18.10
2018-05-16T06:19:33.027Z,20.57
2018-05-16T06:22:02.061Z,19.83
2018-05-16T06:24:30.475Z,23.53
2018-05-16T06:26:59.792Z,20.63
2018-05-16T06:29:28.163Z,21.20
2018-05-16T06:31:56.486Z,20.40
2018-05-16T06:34:24.903Z,20.67
2018-05-16T06:36:53.237Z,22.03
2018-05-16T06:39:21.566Z,23.37
2018-05-16T06:41:49.835Z,23.70
2018-05-16T06:44:18.141Z,22.73
2018-05-16T06:46:46.419Z,23.40
2018-05-16T06:49:14.728Z,27.50
2018-05-16T06:51:42.974Z,25.27
2018-05-16T06:54:11.248Z,27.07
2018-05-16T06:56:39.546Z,23.87
2018-05-16T06:59:07.806Z,28.70
2018-05-16T07:01:36.121Z,27.40
2018-05-16T07:04:04.421Z,27.60
2018-05-16T07:06:32.685Z,27.97
2018-05-16T07:09:02.674Z,29.23
2018-05-16T07:11:30.968Z,30.27
2018-05-16T07:13:59.240Z,28.00
2018-05-16T07:16:27.501Z,28.50
2018-05-16T07:18:55.793Z,26.03
2018-05-16T07:21:24.062Z,24.70
2018-05-16T07:23:52.369Z,27.70
2018-05-16T07:26:20.642Z,29.33
2018-05-16T07:28:48.926Z,27.83
2018-05-16T07:31:17.989Z,25.47
2018-05-16T07:33:46.274Z,29.97
2018-05-16T07:36:14.576Z,29.30
2018-05-16T07:38:43.614Z,27.20
2018-05-16T07:41:11.930Z,30.07
2018-05-16T07:43:40.183Z,29.87
2018-05-16T07:46:08.438Z,26.77
2018-05-16T07:48:37.522Z,25.10
2018-05-16T07:51:05.786Z,27.93
2018-05-16T07:53:34.050Z,27.30
2018-05-16T07:56:02.361Z,26.43
2018-05-16T07:58:30.623Z,28.50
2018-05-16T08:00:59.696Z,28.13
2018-05-16T08:03:27.959Z,29.23
2018-05-16T08:05:56.250Z,27.03
2018-05-16T08:08:24.545Z,33.47
2018-05-16T08:10:53.596Z,29.73
2018-05-16T08:13:21.918Z,31.97
2018-05-16T08:15:50.176Z,31.07
2018-05-16T08:18:18.443Z,29.10
2018-05-16T08:20:46.724Z,29.47
2018-05-16T08:23:14.998Z,29.20
2018-05-16T08:25:43.277Z,30.90
2018-05-16T08:28:11.546Z,29.33
2018-05-16T08:30:39.847Z,25.43
2018-05-16T08:33:08.113Z,25.10
2018-05-16T08:35:36.398Z,28.13
2018-05-16T08:38:04.714Z,29.00
2018-05-16T08:40:33.801Z,27.17
2018-05-16T08:43:02.986Z,29.40
2018-05-16T08:45:31.154Z,25.87
2018-05-16T08:47:59.462Z,28.73
2018-05-16T08:50:27.724Z,26.60
2018-05-16T08:52:56.806Z,27.17
2018-05-16T08:55:25.087Z,25.43
2018-05-16T08:57:53.481Z,25.50
2018-05-16T09:00:21.708Z,26.20
2018-05-16T09:02:49.989Z,24.57
2018-05-16T09:05:18.338Z,23.27
2018-05-16T09:07:46.612Z,22.97
2018-05-16T09:10:14.961Z,24.37
2018-05-16T09:12:43.501Z,24.63
2018-05-16T09:15:11.885Z,23.53
2018-05-16T09:17:40.164Z,24.53
2018-05-16T09:20:08.439Z,24.97
2018-05-16T09:22:36.730Z,22.80
2018-05-16T09:25:05.043Z,23.43
2018-05-16T09:27:33.320Z,23.93
2018-05-16T09:30:01.579Z,23.47
2018-05-16T09:32:29.854Z,25.17
2018-05-16T09:34:58.151Z,25.00
2018-05-16T09:37:26.437Z,26.40
2018-05-16T09:39:55.516Z,28.00
2018-05-16T09:42:24.571Z,26.87
2018-05-16T09:44:52.822Z,27.40
2018-05-16T09:47:21.107Z,25.07
2018-05-16T09:49:49.393Z,27.70
2018-05-16T09:52:17.715Z,29.80
2018-05-16T09:54:45.971Z,29.63
2018-05-16T09:57:14.324Z,28.63
2018-05-16T09:59:42.536Z,26.57
2018-05-16T10:02:10.823Z,30.93
2018-05-16T10:04:39.117Z,30.43
2018-05-16T10:07:07.397Z,29.70
2018-05-16T10:09:35.714Z,29.60
2018-05-16T10:12:03.955Z,30.30
2018-05-16T10:14:33.005Z,31.17
2018-05-16T10:17:01.344Z,30.83
2018-05-16T10:19:29.583Z,29.67
2018-05-16T10:21:57.891Z,30.17
2018-05-16T10:24:26.926Z,32.80
2018-05-16T10:26:55.211Z,32.10
2018-05-16T10:29:23.546Z,30.87
2018-05-16T10:31:52.589Z,30.70
2018-05-16T10:34:20.900Z,33.03
2018-05-16T10:36:49.163Z,32.80
2018-05-16T10:39:17.438Z,31.27
2018-05-16T10:41:45.733Z,32.90
2018-05-16T10:44:14.004Z,32.93
2018-05-16T10:46:42.313Z,33.30
2018-05-16T10:49:11.336Z,33.87
2018-05-16T10:51:39.611Z,33.37
2018-05-16T10:54:07.907Z,32.50
2018-05-16T10:56:36.168Z,33.23
2018-05-16T10:59:04.477Z,33.80
2018-05-16T11:01:32.747Z,32.73
2018-05-16T11:04:01.058Z,31.67
2018-05-16T11:06:29.348Z,32.60
2018-05-16T11:08:57.646Z,33.30
2018-05-16T11:11:26.713Z,33.53
2018-05-16T11:13:54.994Z,32.17
2018-05-16T11:16:23.260Z,32.50
2018-05-16T11:18:51.567Z,33.60
2018-05-16T11:21:20.681Z,33.87
2018-05-16T11:23:48.938Z,32.67
2018-05-16T11:26:17.967Z,33.27
2018-05-16T11:28:47.010Z,37.43
2018-05-16T11:31:15.302Z,33.80
2018-05-16T11:33:44.342Z,33.37
2018-05-16T11:36:12.658Z,31.30
2018-05-16T11:38:41.001Z,37.30
2018-05-16T11:41:09.250Z,31.07
2018-05-16T11:43:37.547Z,32.17
2018-05-16T11:46:05.808Z,32.83
2018-05-16T11:48:34.113Z,30.53
2018-05-16T11:51:02.367Z,31.17
2018-05-16T11:53:30.650Z,35.40
2018-05-16T11:55:58.966Z,29.63
2018-05-16T11:58:27.271Z,30.70
2018-05-16T12:00:56.365Z,33.83
2018-05-16T12:03:24.641Z,32.90
2018-05-16T12:05:52.917Z,32.33
2018-05-16T12:08:21.250Z,29.80
2018-05-16T12:10:49.510Z,31.63
2018-05-16T12:13:17.813Z,37.33
2018-05-16T12:15:46.089Z,46.87
2018-05-16T12:18:14.396Z,33.87
2018-05-16T12:20:42.668Z,30.43
2018-05-16T12:23:10.938Z,28.70
2018-05-16T12:25:39.230Z,29.10
2018-05-16T12:28:07.509Z,29.10
2018-05-16T12:30:35.807Z,28.50
2018-05-16T12:33:04.083Z,30.33
2018-05-16T12:35:32.359Z,30.37
2018-05-16T12:38:00.653Z,28.57
2018-05-16T12:40:30.118Z,29.80
2018-05-16T12:43:10.465Z,27.97
2018-05-16T12:45:45.742Z,26.13
2018-05-16T12:48:15.344Z,25.10
2018-05-16T12:50:45.219Z,22.27
2018-05-16T12:53:13.943Z,24.30
2018-05-16T12:55:42.627Z,25.20
2018-05-16T12:58:10.877Z,24.73
2018-05-16T13:00:39.186Z,25.10
2018-05-16T13:03:07.457Z,25.07
2018-05-16T13:05:35.733Z,26.97
2018-05-16T13:08:04.045Z,28.30
2018-05-16T13:10:32.331Z,29.00
2018-05-16T13:13:00.734Z,26.10
2018-05-16T13:15:28.986Z,24.33
2018-05-16T13:17:57.312Z,25.23
2018-05-16T13:20:25.571Z,24.10
2018-05-16T13:22:53.823Z,24.67
2018-05-16T13:25:22.900Z,22.77
2018-05-16T13:27:51.175Z,22.63
2018-05-16T13:30:19.445Z,22.47
2018-05-16T13:32:47.753Z,21.77
2018-05-16T13:35:16.772Z,22.70
2018-05-16T13:37:45.081Z,22.50
2018-05-16T13:40:13.364Z,22.27
2018-05-16T13:42:41.632Z,21.97
2018-05-16T13:45:09.925Z,22.40
2018-05-16T13:47:38.276Z,22.33
2018-05-16T13:50:06.590Z,21.10
2018-05-16T13:52:34.859Z,22.17
2018-05-16T13:55:03.120Z,20.37
2018-05-16T13:57:31.434Z,20.90
2018-05-16T13:59:59.767Z,21.47
2018-05-16T14:02:28.045Z,18.47
2018-05-16T14:04:56.322Z,18.10
2018-05-16T14:07:24.582Z,18.97
2018-05-16T14:09:52.895Z,20.47
2018-05-16T14:12:21.147Z,19.83
2018-05-16T14:14:49.456Z,18.20
2018-05-16T14:17:17.760Z,20.27
2018-05-16T14:19:46.035Z,19.50
2018-05-16T14:22:15.110Z,18.23
2018-05-16T14:24:43.388Z,18.37
2018-05-16T14:27:11.785Z,16.60
2018-05-16T14:29:44.032Z,15.60
2018-05-16T14:32:12.670Z,18.47
2018-05-16T14:34:41.992Z,17.50
2018-05-16T14:37:10.391Z,19.30
2018-05-16T14:39:38.770Z,20.97
2018-05-16T14:42:07.102Z,19.70
2018-05-16T14:44:35.483Z,19.70
2018-05-16T14:47:04.782Z,19.70
2018-05-16T14:49:33.353Z,21.13
2018-05-16T14:52:01.874Z,19.07
2018-05-16T14:54:30.446Z,20.47
2018-05-16T14:56:58.904Z,18.60
2018-05-16T14:59:27.270Z,19.20
2018-05-16T15:01:55.872Z,18.00
2018-05-16T15:04:24.386Z,18.07
2018-05-16T15:06:53.612Z,16.57
2018-05-16T15:09:22.141Z,18.17
2018-05-16T15:11:50.530Z,17.50
2018-05-16T15:14:18.988Z,16.67
2018-05-16T15:16:47.512Z,16.70
2018-05-16T15:19:16.347Z,16.40
2018-05-16T15:21:44.771Z,16.30
2018-05-16T15:24:13.134Z,14.40
2018-05-16T15:26:42.232Z,11.63
2018-05-16T15:29:10.502Z,9.70
2018-05-16T15:31:38.787Z,8.80
2018-05-16T15:34:07.115Z,9.80
2018-05-16T15:36:35.557Z,8.87
2018-05-16T15:39:05.617Z,8.00
2018-05-16T15:41:33.889Z,8.20
2018-05-16T15:44:02.316Z,8.23
2018-05-16T15:46:30.859Z,7.90
2018-05-16T15:48:59.450Z,9.20
2018-05-16T15:51:27.919Z,8.50
2018-05-16T15:53:56.232Z,8.23
2018-05-16T15:56:24.625Z,7.20
2018-05-16T15:58:53.392Z,7.67
2018-05-16T16:01:21.672Z,6.60
2018-05-16T16:03:50.131Z,6.60
2018-05-16T16:06:18.582Z,5.90
2018-05-16T16:08:47.080Z,7.93
2018-05-16T16:11:15.700Z,5.93
2018-05-16T16:13:44.090Z,6.00
2018-05-16T16:16:12.608Z,6.07
2018-05-16T16:18:40.892Z,5.53
2018-05-16T16:21:09.318Z,6.20
2018-05-16T16:23:37.572Z,5.60
2018-05-16T16:26:06.592Z,6.43
2018-05-16T16:28:35.144Z,6.80
2018-05-16T16:31:03.557Z,7.97
2018-05-16T16:33:32.152Z,5.43
2018-05-16T16:36:00.622Z,6.80
2018-05-16T16:38:29.001Z,6.00
2018-05-16T16:40:57.441Z,8.60
2018-05-16T16:43:26.224Z,6.27
2018-05-16T16:45:54.756Z,5.63
2018-05-16T16:48:23.319Z,6.60
2018-05-16T16:50:53.277Z,5.77
2018-05-16T16:53:21.789Z,6.63
2018-05-16T16:55:51.292Z,6.43
2018-05-16T16:58:19.728Z,6.10
2018-05-16T17:00:48.113Z,7.33
2018-05-16T17:03:16.731Z,9.10
2018-05-16T17:05:45.334Z,6.60
2018-05-16T17:08:13.646Z,6.90
2018-05-16T17:10:42.041Z,8.00
2018-05-16T17:13:10.992Z,8.03
2018-05-16T17:15:39.425Z,7.67
2018-05-16T17:18:08.862Z,7.33
2018-05-16T17:20:37.288Z,7.37
2018-05-16T17:23:06.480Z,7.30
2018-05-16T17:25:35.644Z,8.67
2018-05-16T17:28:03.912Z,6.60
2018-05-16T17:30:32.214Z,7.10
2018-05-16T17:33:01.269Z,7.37
2018-05-16T17:35:30.733Z,10.93
2018-05-16T17:37:59.177Z,7.10
2018-05-16T17:43:05.917Z,7.77
2018-05-16T17:45:36.237Z,7.37
2018-05-16T17:48:04.487Z,6.93
2018-05-16T17:50:33.181Z,8.00
2018-05-16T17:53:02.350Z,9.00
2018-05-16T17:55:32.393Z,8.17
2018-05-16T17:58:02.051Z,11.13
2018-05-16T18:00:32.931Z,7.67
2018-05-16T18:03:01.776Z,7.87
2018-05-16T18:05:30.075Z,7.60
2018-05-16T18:08:01.385Z,8.03
2018-05-16T18:10:29.714Z,8.70
2018-05-16T18:26:36.381Z,6.93
2018-05-16T18:29:05.650Z,6.90
2018-05-16T18:31:34.962Z,7.67
2018-05-16T18:34:08.529Z,6.53
2018-05-16T18:36:36.809Z,11.57
2018-05-16T18:39:06.296Z,7.57
2018-05-16T18:41:36.321Z,8.03
2018-05-16T18:44:05.577Z,7.80
2018-05-16T18:46:35.449Z,8.17
2018-05-16T18:49:05.418Z,8.03
2018-05-16T18:51:33.755Z,8.40
2018-05-16T18:54:02.084Z,8.20
2018-05-16T18:56:31.324Z,10.47
2018-05-16T18:59:00.017Z,11.10
2018-05-16T19:01:29.119Z,9.57
2018-05-16T19:03:58.737Z,9.80
2018-05-16T19:06:29.063Z,11.63
2018-05-16T19:08:57.493Z,10.17
2018-05-16T19:11:27.040Z,8.97
2018-05-16T19:13:55.667Z,9.57
2018-05-16T19:16:24.016Z,8.47
2018-05-16T19:18:52.713Z,9.80
2018-05-16T19:21:21.431Z,9.30
2018-05-16T19:23:50.571Z,8.90
2018-05-16T19:26:18.925Z,10.70
2018-05-16T19:28:47.325Z,10.37
2018-05-16T19:31:15.678Z,13.80
2018-05-16T19:33:43.990Z,10.23
2018-05-16T19:36:14.638Z,10.20
2018-05-16T19:38:43.071Z,10.20
2018-05-16T19:41:11.376Z,11.30
2018-05-16T19:43:39.703Z,10.57
2018-05-16T19:46:08.334Z,11.03
2018-05-16T19:48:36.609Z,12.40
2018-05-16T19:51:04.903Z,12.93
2018-05-16T19:53:33.337Z,13.70
2018-05-16T19:56:02.161Z,12.40
2018-05-16T19:58:30.800Z,12.93
2018-05-16T20:00:59.253Z,13.40
2018-05-16T20:03:27.878Z,16.40
2018-05-16T20:05:59.277Z,13.67
2018-05-16T20:08:28.382Z,14.30
2018-05-16T20:10:56.752Z,14.17
2018-05-16T20:13:26.036Z,14.47
2018-05-16T20:15:56.320Z,13.20
2018-05-16T20:18:27.879Z,12.87
2018-05-16T20:20:56.446Z,14.57
2018-05-16T20:23:24.806Z,14.43
2018-05-16T20:25:54.118Z,17.20
2018-05-16T20:28:23.635Z,14.53
2018-05-16T20:30:51.984Z,14.43
2018-05-16T20:33:20.401Z,16.53
2018-05-16T20:35:48.804Z,18.10
2018-05-16T20:38:17.697Z,15.67
2018-05-16T20:40:46.020Z,16.67
2018-05-16T20:43:15.115Z,18.73
2018-05-16T20:45:43.397Z,19.37
2018-05-16T20:48:12.630Z,16.97
2018-05-16T20:50:40.976Z,17.47
2018-05-16T20:53:09.275Z,17.73
2018-05-16T20:55:37.558Z,19.40
2018-05-16T20:58:05.834Z,22.60
2018-05-16T21:00:34.176Z,20.43
2018-05-16T21:03:02.451Z,19.47
2018-05-16T21:05:30.920Z,19.97
2018-05-16T21:07:59.782Z,18.30
2018-05-16T21:10:28.259Z,21.07
2018-05-16T21:12:56.549Z,18.10
2018-05-16T21:15:25.424Z,20.17
2018-05-16T21:17:54.101Z,18.87
2018-05-16T21:20:22.370Z,20.07
2018-05-16T21:22:50.706Z,19.83
2018-05-16T21:25:19.038Z,20.10
2018-05-16T21:27:48.081Z,20.30
2018-05-16T21:30:16.401Z,19.50
2018-05-16T21:32:46.677Z,20.20
2018-05-16T21:35:14.963Z,19.67
2018-05-16T21:37:43.238Z,18.87
2018-05-16T21:40:11.549Z,19.17
2018-05-16T21:42:40.576Z,18.53
2018-05-16T21:45:08.928Z,17.83
2018-05-16T21:47:37.965Z,19.53
2018-05-16T21:50:06.225Z,18.77
2018-05-16T21:52:34.513Z,17.97
2018-05-16T21:55:02.849Z,19.93
2018-05-16T21:57:31.200Z,18.87
2018-05-16T21:59:59.506Z,18.70
2018-05-16T22:02:27.812Z,19.33
2018-05-16T22:04:56.117Z,19.70
2018-05-16T22:07:25.224Z,18.80
2018-05-16T22:09:53.518Z,19.20
2018-05-16T22:12:21.812Z,20.00
2018-05-16T22:14:50.135Z,17.80
2018-05-16T22:17:18.467Z,19.83
2018-05-16T22:19:46.773Z,20.33
2018-05-16T22:22:15.833Z,22.80
2018-05-16T22:24:44.111Z,19.00
2018-05-16T22:27:12.422Z,18.20
2018-05-16T22:29:41.531Z,18.73
2018-05-16T22:32:15.464Z,19.63
2018-05-16T22:34:49.436Z,18.83
2018-05-16T22:37:24.129Z,20.50
2018-05-16T22:39:58.012Z,19.80
2018-05-16T22:42:28.641Z,19.23
2018-05-16T22:58:19.555Z,17.30
2018-05-16T23:00:47.862Z,18.07
2018-05-16T23:03:16.127Z,18.40
2018-05-16T23:05:44.458Z,19.67
2018-05-16T23:08:12.731Z,18.73
2018-05-16T23:10:41.862Z,20.53
2018-05-16T23:13:10.159Z,17.90
2018-05-16T23:15:38.419Z,18.90
2018-05-16T23:18:06.718Z,18.80
2018-05-16T23:20:34.984Z,19.67
2018-05-16T23:23:03.244Z,19.30
2018-05-16T23:25:31.588Z,19.07
2018-05-16T23:28:00.665Z,18.80
2018-05-16T23:30:29.058Z,18.90
2018-05-16T23:32:58.090Z,21.10
2018-05-16T23:35:26.357Z,18.50
2018-05-16T23:37:55.419Z,19.43
2018-05-16T23:40:23.687Z,19.70
2018-05-16T23:42:51.984Z,20.03
2018-05-16T23:45:21.026Z,18.70
2018-05-16T23:47:49.341Z,18.33
2018-05-16T23:50:18.323Z,21.40
2018-05-16T23:52:46.560Z,19.90
2018-05-16T23:55:14.845Z,18.27
2018-05-16T23:57:43.116Z,18.77
